TimeMDT,TemperatureF,Dew PointF,Humidity,Sea Level PressureIn,VisibilityMPH,Wind Direction,Wind SpeedMPH,Gust SpeedMPH,PrecipitationIn,Events,Conditions,WindDirDegrees,DateUTC
12:15 AM,60.8,55.4,82,30.02,10.0,SSE,9.2,18.4,N/A,Rain,Rain,150,2013-09-14 06:15:00
12:35 AM,59.9,55.6,86,30.01,10.0,SSE,9.2,-,0.01,,Light Drizzle,150,2013-09-14 06:35:00
12:55 AM,59.9,55.4,85,30.01,10.0,SSE,8.1,-,0.01,,Overcast,150,2013-09-14 06:55:00
1:15 AM,59.9,55.4,85,30.01,10.0,SSE,9.2,-,N/A,,Overcast,150,2013-09-14 07:15:00
1:35 AM,59.5,55.4,86,30.01,10.0,South,5.8,16.1,N/A,,Overcast,170,2013-09-14 07:35:00
1:55 AM,59.5,55.8,87,30.00,10.0,SSE,5.8,-,N/A,,Overcast,150,2013-09-14 07:55:00
2:15 AM,59.7,55.8,87,30.00,10.0,SSE,5.8,-,N/A,,Overcast,150,2013-09-14 08:15:00
2:35 AM,59.7,55.9,87,30.00,10.0,SSE,8.1,-,N/A,,Overcast,160,2013-09-14 08:35:00
2:55 AM,59.4,55.8,88,29.99,10.0,SSE,8.1,-,N/A,,Overcast,150,2013-09-14 08:55:00
3:15 AM,59.4,55.9,88,29.99,10.0,South,6.9,-,N/A,,Overcast,170,2013-09-14 09:15:00
3:35 AM,59.4,56.3,90,29.98,10.0,SSE,8.1,-,N/A,,Overcast,160,2013-09-14 09:35:00
3:55 AM,59.2,56.3,90,29.98,5.0,SSE,8.1,-,N/A,,Overcast,160,2013-09-14 09:55:00
4:15 AM,59.0,56.7,92,29.97,5.0,SSE,6.9,-,N/A,,Overcast,160,2013-09-14 10:15:00
4:35 AM,58.6,56.8,94,29.96,3.0,SSE,6.9,-,N/A,Rain,Rain,160,2013-09-14 10:35:00
4:55 AM,59.0,57.0,93,29.95,7.0,SSE,9.2,-,N/A,,Overcast,160,2013-09-14 10:55:00
5:15 AM,59.0,57.2,94,29.95,7.0,SSE,3.5,-,N/A,,Overcast,160,2013-09-14 11:15:00
5:35 AM,59.2,57.0,93,29.95,7.0,Calm,Calm,-,N/A,,Overcast,0,2013-09-14 11:35:00
5:55 AM,59.2,56.8,92,29.94,7.0,SSE,6.9,-,N/A,,Overcast,150,2013-09-14 11:55:00
6:15 AM,59.2,56.7,91,29.92,10.0,SE,11.5,16.1,N/A,,Overcast,130,2013-09-14 12:15:00
6:35 AM,59.2,56.3,90,29.92,10.0,SSE,13.8,-,N/A,,Overcast,160,2013-09-14 12:35:00
6:55 AM,59.2,56.3,90,29.93,10.0,South,12.7,23.0,N/A,,Overcast,170,2013-09-14 12:55:00
7:15 AM,59.4,56.3,90,29.93,10.0,South,12.7,18.4,N/A,,Overcast,170,2013-09-14 13:15:00
7:35 AM,59.9,56.3,88,29.93,10.0,South,11.5,16.1,N/A,,Overcast,170,2013-09-14 13:35:00
7:55 AM,60.6,56.8,87,29.94,10.0,South,11.5,17.3,N/A,,Overcast,170,2013-09-14 13:55:00
8:15 AM,61.2,56.8,86,29.94,10.0,South,9.2,-,N/A,,Overcast,170,2013-09-14 14:15:00
8:35 AM,61.2,57.2,87,29.94,10.0,South,8.1,-,N/A,,Overcast,180,2013-09-14 14:35:00
8:55 AM,61.7,57.6,86,29.94,10.0,SSW,5.8,-,N/A,,Overcast,200,2013-09-14 14:55:00
9:15 AM,63.0,58.1,84,29.94,10.0,South,9.2,-,N/A,,Overcast,190,2013-09-14 15:15:00
9:35 AM,63.9,58.6,83,29.94,10.0,SSW,8.1,-,N/A,,Overcast,200,2013-09-14 15:35:00
9:55 AM,64.4,58.6,82,29.94,10.0,SSW,8.1,-,N/A,,Overcast,200,2013-09-14 15:55:00
10:15 AM,65.1,59.2,81,29.94,10.0,SSW,8.1,-,N/A,,Overcast,200,2013-09-14 16:15:00
10:35 AM,66.4,60.1,80,29.93,10.0,SSW,5.8,-,N/A,,Overcast,200,2013-09-14 16:35:00
10:55 AM,67.5,60.6,79,29.93,10.0,SSW,6.9,-,N/A,,Overcast,200,2013-09-14 16:55:00
11:15 AM,68.9,61.0,76,29.93,10.0,SSW,8.1,-,N/A,,Overcast,210,2013-09-14 17:15:00
11:35 AM,69.8,61.3,74,29.92,10.0,South,9.2,-,N/A,,Overcast,170,2013-09-14 17:35:00
11:55 AM,70.5,61.7,74,29.91,10.0,SSW,9.2,-,N/A,,Overcast,200,2013-09-14 17:55:00
12:15 PM,71.6,61.9,71,29.91,10.0,South,8.1,-,N/A,,Overcast,190,2013-09-14 18:15:00
12:35 PM,72.7,61.7,68,29.91,10.0,South,5.8,-,N/A,,Overcast,180,2013-09-14 18:35:00
12:55 PM,73.6,61.3,65,29.91,10.0,SSW,9.2,-,N/A,,Mostly Cloudy,210,2013-09-14 18:55:00
1:15 PM,74.7,61.9,64,29.90,10.0,South,4.6,-,N/A,,Overcast,170,2013-09-14 19:15:00
1:35 PM,75.7,61.9,62,29.89,10.0,SSE,5.8,-,N/A,,Mostly Cloudy,150,2013-09-14 19:35:00
1:55 PM,76.5,62.1,61,29.88,10.0,SSW,5.8,-,N/A,,Mostly Cloudy,210,2013-09-14 19:55:00
2:15 PM,77.7,61.9,58,29.88,10.0,South,3.5,-,N/A,,Scattered Clouds,190,2013-09-14 20:15:00
2:35 PM,79.2,61.3,54,29.87,10.0,Calm,Calm,-,N/A,,Scattered Clouds,0,2013-09-14 20:35:00
2:55 PM,79.3,61.7,55,29.87,10.0,South,4.6,-,N/A,,Scattered Clouds,190,2013-09-14 20:55:00
3:15 PM,78.4,61.3,56,29.87,10.0,Calm,Calm,-,N/A,,Scattered Clouds,0,2013-09-14 21:15:00
3:35 PM,79.0,61.5,55,29.86,10.0,SW,3.5,-,N/A,,Clear,230,2013-09-14 21:35:00
3:55 PM,79.0,61.5,55,29.86,10.0,Calm,Calm,-,N/A,,Clear,0,2013-09-14 21:55:00
4:15 PM,80.2,61.7,53,29.86,10.0,Calm,Calm,-,N/A,,Clear,0,2013-09-14 22:15:00
4:35 PM,80.4,63.1,55,29.86,10.0,SE,8.1,-,N/A,,Clear,130,2013-09-14 22:35:00
4:55 PM,79.7,63.3,57,29.86,10.0,SE,5.8,-,N/A,,Clear,140,2013-09-14 22:55:00
5:15 PM,79.5,63.0,57,29.87,10.0,SE,8.1,-,N/A,,Clear,140,2013-09-14 23:15:00
5:35 PM,78.3,63.1,60,29.86,10.0,SE,5.8,-,N/A,,Clear,130,2013-09-14 23:35:00
5:55 PM,78.8,63.1,59,29.87,10.0,Calm,Calm,-,N/A,,Clear,0,2013-09-14 23:55:00
6:15 PM,77.9,64.2,63,29.87,10.0,SE,5.8,-,N/A,,Clear,140,2013-09-15 00:15:00
6:35 PM,75.9,64.0,67,29.87,10.0,SE,4.6,-,N/A,,Clear,140,2013-09-15 00:35:00
6:55 PM,74.1,64.0,71,29.87,10.0,SSE,3.5,-,N/A,,Clear,160,2013-09-15 00:55:00
7:15 PM,73.0,64.4,74,29.87,10.0,Calm,Calm,-,N/A,,Clear,0,2013-09-15 01:15:00
7:35 PM,70.9,64.2,79,29.88,10.0,Calm,Calm,-,N/A,,Clear,0,2013-09-15 01:35:00
7:55 PM,70.3,64.6,82,29.89,10.0,East,4.6,-,N/A,,Clear,80,2013-09-15 01:55:00
8:15 PM,70.2,64.4,82,29.89,10.0,NE,5.8,-,N/A,,Clear,50,2013-09-15 02:15:00
8:35 PM,70.7,64.6,81,29.89,10.0,East,5.8,-,N/A,,Clear,80,2013-09-15 02:35:00
8:55 PM,71.2,64.8,80,29.90,10.0,East,6.9,-,N/A,,Clear,100,2013-09-15 02:55:00
9:15 PM,70.7,64.6,81,29.91,10.0,East,5.8,-,N/A,,Clear,80,2013-09-15 03:15:00
9:35 PM,70.9,64.4,80,29.91,10.0,NE,5.8,-,N/A,,Clear,50,2013-09-15 03:35:00
9:55 PM,69.8,64.4,83,29.92,10.0,East,5.8,-,N/A,,Clear,100,2013-09-15 03:55:00
10:15 PM,69.8,64.4,83,29.91,10.0,ENE,4.6,-,N/A,,Clear,70,2013-09-15 04:15:00
10:35 PM,68.9,64.4,86,29.91,10.0,ENE,3.5,-,N/A,Thunderstorm,Thunderstorm,70,2013-09-15 04:35:00
10:55 PM,68.2,64.4,88,29.93,7.0,North,8.1,-,N/A,,Clear,350,2013-09-15 04:55:00
11:15 PM,68.9,60.3,74,29.95,10.0,NE,8.1,-,N/A,,Scattered Clouds,50,2013-09-15 05:15:00
11:35 PM,68.9,61.0,76,29.94,10.0,NNE,3.5,-,N/A,Thunderstorm,Mostly Cloudy,20,2013-09-15 05:35:00
11:55 PM,69.1,62.1,78,29.97,10.0,East,3.5,-,N/A,Thunderstorm,Overcast,100,2013-09-15 05:55:00